createdAt,value
2023-03-28T00:00:28.845Z,2.64
2023-03-28T00:02:55.500Z,2.61
2023-03-28T00:05:24.152Z,2.73
2023-03-28T00:07:51.205Z,2.73
2023-03-28T00:10:17.736Z,2.66
2023-03-28T00:12:44.354Z,2.60
2023-03-28T00:15:11.093Z,2.81
2023-03-28T00:17:37.619Z,2.76
2023-03-28T00:20:06.322Z,2.55
2023-03-28T00:22:33.915Z,2.67
2023-03-28T00:25:00.419Z,2.60
2023-03-28T00:27:27.078Z,2.87
2023-03-28T00:29:53.556Z,2.69
2023-03-28T00:32:20.362Z,3.20
2023-03-28T00:34:46.873Z,3.14
2023-03-28T00:37:17.182Z,3.01
2023-03-28T00:39:49.925Z,3.28
2023-03-28T00:42:17.832Z,3.11
2023-03-28T00:44:52.710Z,3.15
2023-03-28T00:47:30.692Z,3.10
2023-03-28T00:50:03.479Z,3.40
2023-03-28T00:52:32.764Z,3.34
2023-03-28T00:54:59.909Z,3.53
2023-03-28T00:57:28.062Z,3.63
2023-03-28T00:59:54.965Z,3.40
2023-03-28T01:02:21.666Z,3.30
2023-03-28T01:04:53.209Z,3.34
2023-03-28T01:07:22.372Z,3.57
2023-03-28T01:09:49.366Z,3.63
2023-03-28T01:12:16.510Z,3.50
2023-03-28T01:14:43.837Z,3.02
2023-03-28T01:17:10.872Z,2.91
2023-03-28T01:19:37.310Z,2.87
2023-03-28T01:22:13.885Z,3.00
2023-03-28T01:24:52.530Z,3.07
2023-03-28T01:27:22.199Z,3.08
2023-03-28T01:30:01.667Z,2.98
2023-03-28T01:32:57.443Z,3.23
2023-03-28T01:35:42.801Z,3.37
2023-03-28T01:38:12.405Z,3.38
2023-03-28T01:40:46.149Z,3.53
2023-03-28T01:43:20.317Z,3.62
2023-03-28T01:46:05.840Z,3.64
2023-03-28T01:48:37.049Z,3.69
2023-03-28T01:51:23.010Z,3.70
2023-03-28T01:54:08.441Z,3.88
2023-03-28T01:56:55.253Z,3.65
2023-03-28T01:59:47.966Z,3.65
2023-03-28T02:02:27.484Z,3.43
2023-03-28T02:05:00.836Z,3.55
2023-03-28T02:07:28.915Z,3.33
2023-03-28T02:10:08.586Z,3.31
2023-03-28T02:12:59.200Z,3.07
2023-03-28T02:16:02.659Z,3.08
2023-03-28T02:18:56.893Z,2.90
2023-03-28T02:21:59.920Z,3.09
2023-03-28T02:24:56.369Z,2.79
2023-03-28T02:27:47.904Z,2.79
2023-03-28T02:30:40.404Z,2.81
2023-03-28T02:33:10.425Z,2.78
2023-03-28T02:35:48.574Z,2.78
2023-03-28T02:38:26.863Z,2.67
2023-03-28T02:40:58.702Z,2.78
2023-03-28T02:43:36.766Z,2.80
2023-03-28T02:48:51.345Z,2.86
2023-03-28T02:51:36.845Z,2.76
2023-03-28T02:54:09.245Z,2.77
2023-03-28T02:57:01.424Z,2.68
2023-03-28T02:59:38.229Z,2.59
2023-03-28T03:02:04.882Z,2.49
2023-03-28T03:04:31.560Z,2.59
2023-03-28T03:07:02.005Z,2.61
2023-03-28T03:09:30.624Z,2.49
2023-03-28T03:11:57.098Z,2.57
2023-03-28T03:14:23.660Z,2.38
2023-03-28T03:16:52.508Z,2.41
2023-03-28T03:19:19.442Z,2.35
2023-03-28T03:21:46.593Z,2.21
2023-03-28T03:24:14.340Z,2.12
2023-03-28T03:26:44.655Z,2.14
2023-03-28T03:29:15.728Z,2.03
2023-03-28T03:31:42.572Z,2.13
2023-03-28T03:34:38.105Z,1.90
2023-03-28T03:37:04.662Z,1.91
2023-03-28T03:39:31.149Z,1.87
2023-03-28T03:41:57.669Z,1.82
2023-03-28T03:44:24.246Z,1.66
2023-03-28T03:46:53.205Z,1.77
2023-03-28T03:49:19.706Z,1.79
2023-03-28T03:51:46.465Z,1.91
2023-03-28T03:54:16.207Z,1.97
2023-03-28T03:56:42.942Z,1.64
2023-03-28T03:59:10.493Z,1.72
2023-03-28T04:01:39.978Z,1.83
2023-03-28T04:04:27.267Z,1.84
2023-03-28T04:07:10.217Z,1.68
2023-03-28T04:09:36.984Z,1.82
2023-03-28T04:12:05.801Z,2.07
2023-03-28T04:14:42.389Z,1.84
2023-03-28T04:17:29.689Z,1.55
2023-03-28T04:19:58.333Z,1.52
2023-03-28T04:22:29.728Z,1.61
2023-03-28T04:24:57.106Z,1.74
2023-03-28T04:27:35.636Z,1.69
2023-03-28T04:30:03.275Z,1.71
2023-03-28T04:32:54.349Z,1.61
2023-03-28T04:35:25.772Z,1.32
2023-03-28T04:37:53.827Z,1.49
2023-03-28T04:40:21.728Z,1.51
2023-03-28T04:42:54.920Z,1.34
2023-03-28T04:45:32.999Z,1.40
2023-03-28T04:48:09.712Z,1.36
2023-03-28T04:50:36.301Z,1.24
2023-03-28T04:53:03.438Z,1.00
2023-03-28T04:55:31.524Z,1.01
2023-03-28T04:57:59.625Z,0.95
2023-03-28T05:00:27.288Z,0.97
2023-03-28T05:03:06.024Z,1.09
2023-03-28T05:05:46.423Z,1.32
2023-03-28T05:08:14.303Z,1.55
2023-03-28T05:10:41.160Z,1.42
2023-03-28T05:13:10.045Z,1.22
2023-03-28T05:15:46.088Z,1.09
2023-03-28T05:18:22.091Z,1.21
2023-03-28T05:20:48.565Z,1.41
2023-03-28T05:23:15.137Z,1.59
2023-03-28T05:25:49.645Z,1.47
2023-03-28T05:28:16.180Z,1.61
2023-03-28T05:30:49.404Z,1.60
2023-03-28T05:33:16.016Z,1.63
2023-03-28T05:35:43.838Z,1.68
2023-03-28T05:38:10.642Z,1.87
2023-03-28T05:40:37.476Z,2.09
2023-03-28T05:43:04.644Z,2.83
2023-03-28T05:45:32.729Z,3.23
2023-03-28T05:48:28.237Z,3.23
2023-03-28T05:50:54.695Z,3.34
2023-03-28T05:53:21.796Z,3.67
2023-03-28T05:55:49.600Z,3.46
2023-03-28T05:58:17.529Z,4.07
2023-03-28T06:00:44.640Z,4.28
2023-03-28T06:03:17.007Z,4.14
2023-03-28T06:05:45.061Z,4.22
2023-03-28T06:08:19.436Z,4.19
2023-03-28T06:10:46.604Z,4.27
2023-03-28T06:13:24.293Z,4.60
2023-03-28T06:15:51.719Z,4.77
2023-03-28T06:18:22.620Z,5.14
2023-03-28T06:20:49.894Z,5.05
2023-03-28T06:23:16.452Z,5.00
2023-03-28T06:25:43.720Z,5.17
2023-03-28T06:28:11.463Z,5.34
2023-03-28T06:30:58.034Z,4.92
2023-03-28T06:33:25.449Z,5.27
2023-03-28T06:35:52.010Z,5.33
2023-03-28T06:38:18.651Z,5.93
2023-03-28T06:40:50.242Z,6.30
2023-03-28T06:43:16.883Z,5.66
2023-03-28T06:45:46.753Z,6.47
2023-03-28T06:48:14.813Z,7.09
2023-03-28T06:51:00.567Z,7.94
2023-03-28T06:53:27.749Z,7.81
2023-03-28T06:55:54.531Z,9.02
2023-03-28T06:58:22.415Z,8.99
2023-03-28T07:00:54.984Z,9.76
2023-03-28T07:03:48.683Z,8.76
2023-03-28T07:06:20.644Z,9.57
2023-03-28T07:08:47.181Z,9.74
2023-03-28T07:11:15.952Z,10.43
2023-03-28T07:13:46.480Z,11.09
2023-03-28T07:16:14.340Z,11.15
2023-03-28T07:18:42.401Z,11.39
2023-03-28T07:21:12.740Z,11.59
2023-03-28T07:23:39.752Z,11.06
2023-03-28T07:26:07.418Z,11.45
2023-03-28T07:28:33.989Z,10.66
2023-03-28T07:31:02.626Z,10.78
2023-03-28T07:33:36.835Z,10.89
2023-03-28T07:36:11.196Z,10.03
2023-03-28T07:38:37.918Z,10.03
2023-03-28T07:41:05.454Z,10.59
2023-03-28T07:43:32.067Z,10.92
2023-03-28T07:46:02.997Z,11.35
2023-03-28T07:48:29.964Z,10.95
2023-03-28T07:50:56.521Z,12.05
2023-03-28T07:53:23.147Z,11.86
2023-03-28T07:55:54.814Z,10.89
2023-03-28T07:58:25.539Z,10.36
2023-03-28T08:00:56.255Z,11.66
2023-03-28T08:03:44.833Z,11.81
2023-03-28T08:06:24.714Z,12.05
2023-03-28T08:08:57.935Z,11.29
2023-03-28T08:11:42.276Z,10.78
2023-03-28T08:14:10.983Z,11.46
2023-03-28T08:16:37.735Z,11.59
2023-03-28T08:21:43.062Z,11.93
2023-03-28T08:24:14.083Z,10.67
2023-03-28T08:26:55.274Z,11.81
2023-03-28T08:29:23.134Z,11.40
2023-03-28T08:31:49.722Z,12.18
2023-03-28T08:34:16.301Z,12.58
2023-03-28T08:36:44.224Z,10.92
2023-03-28T08:39:24.389Z,12.14
2023-03-28T08:41:51.089Z,12.40
2023-03-28T08:44:18.128Z,12.51
2023-03-28T08:46:45.486Z,12.74
2023-03-28T08:49:15.223Z,10.88
2023-03-28T08:51:52.969Z,12.07
2023-03-28T08:54:23.002Z,12.94
2023-03-28T08:56:51.450Z,12.70
2023-03-28T08:59:20.840Z,13.07
2023-03-28T09:01:47.481Z,12.93
2023-03-28T09:04:24.200Z,12.35
2023-03-28T09:06:59.989Z,12.45
2023-03-28T09:09:45.323Z,12.51
2023-03-28T09:12:40.902Z,12.92
2023-03-28T09:15:27.789Z,12.92
2023-03-28T09:18:04.077Z,11.31
2023-03-28T09:20:30.948Z,11.98
2023-03-28T09:23:18.557Z,12.94
2023-03-28T09:26:17.597Z,12.29
2023-03-28T09:29:08.931Z,12.94
2023-03-28T09:31:46.642Z,12.25
2023-03-28T09:34:27.310Z,13.22
2023-03-28T09:37:16.531Z,13.32
2023-03-28T09:39:54.891Z,12.79
2023-03-28T09:42:36.871Z,13.04
2023-03-28T09:45:23.843Z,11.17
2023-03-28T09:48:00.226Z,13.02
2023-03-28T09:50:34.036Z,14.08
2023-03-28T09:53:02.132Z,13.35
2023-03-28T09:55:30.315Z,13.45
2023-03-28T09:58:08.441Z,13.16
2023-03-28T10:00:55.293Z,11.96
2023-03-28T10:03:51.401Z,12.22
2023-03-28T10:06:25.853Z,13.31
2023-03-28T10:08:52.430Z,13.15
2023-03-28T10:11:43.341Z,11.57
2023-03-28T10:14:27.957Z,10.84
2023-03-28T10:16:54.683Z,14.35
2023-03-28T10:19:31.606Z,14.61
2023-03-28T10:22:21.028Z,15.39
2023-03-28T10:24:51.437Z,14.43
2023-03-28T10:27:24.585Z,15.07
2023-03-28T10:29:53.454Z,15.51
2023-03-28T10:32:24.722Z,15.64
2023-03-28T10:35:26.274Z,15.48
2023-03-28T10:38:15.302Z,16.01
2023-03-28T10:41:12.193Z,15.99
2023-03-28T10:44:26.469Z,16.22
2023-03-28T10:47:01.244Z,16.09
2023-03-28T10:49:47.161Z,15.20
2023-03-28T10:52:19.507Z,14.69
2023-03-28T10:55:06.912Z,15.44
2023-03-28T10:58:00.699Z,14.89
2023-03-28T11:00:32.292Z,15.97
2023-03-28T11:03:18.889Z,15.03
2023-03-28T11:05:55.036Z,14.04
2023-03-28T11:08:36.108Z,12.93
2023-03-28T11:11:13.324Z,11.49
2023-03-28T11:14:17.505Z,10.64
2023-03-28T11:17:03.576Z,11.55
2023-03-28T11:20:05.692Z,12.47
2023-03-28T11:22:49.856Z,11.92
2023-03-28T11:25:35.775Z,12.82
2023-03-28T11:28:55.989Z,11.93
2023-03-28T11:31:29.446Z,12.00
2023-03-28T11:33:59.009Z,11.46
2023-03-28T11:36:29.456Z,14.08
2023-03-28T11:39:06.432Z,14.54
2023-03-28T11:41:36.319Z,12.86
2023-03-28T11:44:32.762Z,14.03
2023-03-28T11:47:04.548Z,15.35
2023-03-28T11:49:41.670Z,15.21
2023-03-28T11:52:28.296Z,14.03
2023-03-28T11:54:56.002Z,14.65
2023-03-28T11:57:28.858Z,14.08
2023-03-28T12:00:23.120Z,12.04
2023-03-28T12:03:16.936Z,13.14
2023-03-28T12:06:00.000Z,13.18
2023-03-28T12:08:35.044Z,13.31
2023-03-28T12:11:05.977Z,14.17
2023-03-28T12:14:08.846Z,12.33
2023-03-28T12:16:43.823Z,12.71
2023-03-28T12:19:13.727Z,14.09
2023-03-28T12:21:54.249Z,14.00
2023-03-28T12:24:35.244Z,14.96
2023-03-28T12:27:27.658Z,13.84
2023-03-28T12:29:59.133Z,13.39
2023-03-28T12:32:32.900Z,14.37
2023-03-28T12:35:19.559Z,13.41
2023-03-28T12:37:59.621Z,14.53
2023-03-28T12:40:36.312Z,13.76
2023-03-28T12:43:04.321Z,13.48
2023-03-28T12:45:32.334Z,13.38
2023-03-28T12:48:02.972Z,13.41
2023-03-28T12:50:35.469Z,15.00
2023-03-28T12:53:02.998Z,15.04
2023-03-28T12:55:44.469Z,14.35
2023-03-28T12:58:19.822Z,13.62
2023-03-28T13:00:58.277Z,12.58
2023-03-28T13:03:57.220Z,13.80
2023-03-28T13:06:42.117Z,14.66
2023-03-28T13:09:19.306Z,14.32
2023-03-28T13:11:58.611Z,12.76
2023-03-28T13:14:25.133Z,13.86
2023-03-28T13:16:51.630Z,14.56
2023-03-28T13:19:20.295Z,13.31
2023-03-28T13:21:50.315Z,14.62
2023-03-28T13:24:26.106Z,14.26
2023-03-28T13:27:05.997Z,14.36
2023-03-28T13:29:46.136Z,14.70
2023-03-28T13:32:14.740Z,14.12
2023-03-28T13:34:46.605Z,12.83
2023-03-28T13:37:22.836Z,12.92
2023-03-28T13:39:50.773Z,14.01
2023-03-28T13:42:27.360Z,14.32
2023-03-28T13:44:55.860Z,14.89
2023-03-28T13:47:29.327Z,14.20
2023-03-28T13:50:19.507Z,14.03
2023-03-28T13:52:46.114Z,14.05
2023-03-28T13:55:20.688Z,12.52
2023-03-28T13:57:47.960Z,13.70
2023-03-28T14:00:16.918Z,14.31
2023-03-28T14:05:21.523Z,14.24
2023-03-28T14:07:48.530Z,13.43
2023-03-28T14:10:22.489Z,13.79
2023-03-28T14:12:51.309Z,14.56
2023-03-28T14:15:21.805Z,13.44
2023-03-28T14:17:49.994Z,14.51
2023-03-28T14:20:17.953Z,13.07
2023-03-28T14:22:57.436Z,12.80
2023-03-28T14:25:27.402Z,13.59
2023-03-28T14:27:54.867Z,13.48
2023-03-28T14:30:24.373Z,12.79
2023-03-28T14:33:01.741Z,12.83
2023-03-28T14:35:32.521Z,13.24
2023-03-28T14:38:00.983Z,13.02
2023-03-28T14:40:32.068Z,12.05
2023-03-28T14:43:19.900Z,12.79
2023-03-28T14:45:48.833Z,12.93
2023-03-28T14:48:17.981Z,11.17
2023-03-28T14:50:45.870Z,11.32
2023-03-28T14:53:16.965Z,11.23
2023-03-28T14:55:43.916Z,11.09
2023-03-28T14:58:13.204Z,11.86
2023-03-28T15:00:43.962Z,12.85
2023-03-28T15:03:18.699Z,13.13
2023-03-28T15:05:46.592Z,12.66
2023-03-28T15:08:34.594Z,13.03
2023-03-28T15:11:05.460Z,12.89
2023-03-28T15:13:34.438Z,11.73
2023-03-28T15:16:01.469Z,11.76
2023-03-28T15:18:30.511Z,12.65
2023-03-28T15:20:59.206Z,11.86
2023-03-28T15:23:33.635Z,11.36
2023-03-28T15:26:07.516Z,11.93
2023-03-28T15:28:35.120Z,12.19
2023-03-28T15:31:02.787Z,11.13
2023-03-28T15:33:32.164Z,10.55
2023-03-28T15:36:25.420Z,11.45
2023-03-28T15:38:59.165Z,11.31
2023-03-28T15:41:31.751Z,11.41
2023-03-28T15:43:59.546Z,9.61
2023-03-28T15:46:33.056Z,10.76
2023-03-28T15:49:00.755Z,10.87
2023-03-28T15:51:28.119Z,10.54
2023-03-28T15:53:54.930Z,10.68
2023-03-28T15:56:34.046Z,10.86
2023-03-28T15:59:10.847Z,9.18
2023-03-28T16:01:37.339Z,9.25
2023-03-28T16:04:09.931Z,8.40
2023-03-28T16:06:43.893Z,9.45
2023-03-28T16:09:15.591Z,9.53
2023-03-28T16:11:42.487Z,9.32
2023-03-28T16:14:27.564Z,9.02
2023-03-28T16:17:14.444Z,9.10
2023-03-28T16:19:53.289Z,8.95
2023-03-28T16:22:21.060Z,8.62
2023-03-28T16:24:48.533Z,8.41
2023-03-28T16:27:15.305Z,8.38
2023-03-28T16:29:43.227Z,8.24
2023-03-28T16:32:13.753Z,7.66
2023-03-28T16:34:40.606Z,7.65
2023-03-28T16:37:08.908Z,7.81
2023-03-28T16:39:36.056Z,7.92
2023-03-28T16:42:02.604Z,8.24
2023-03-28T16:44:29.094Z,7.98
2023-03-28T16:46:55.689Z,7.20
2023-03-28T16:49:22.216Z,7.41
2023-03-28T16:51:48.783Z,7.47
2023-03-28T16:54:15.468Z,7.69
2023-03-28T16:56:42.511Z,7.45
2023-03-28T16:59:10.097Z,7.37
2023-03-28T17:01:36.910Z,7.41
2023-03-28T17:04:03.894Z,7.07
2023-03-28T17:06:30.871Z,6.60
2023-03-28T17:08:58.705Z,6.69
2023-03-28T17:11:27.021Z,6.40
2023-03-28T17:13:54.588Z,6.60
2023-03-28T17:16:22.744Z,6.90
2023-03-28T17:18:49.858Z,6.35
2023-03-28T17:21:17.464Z,6.58
2023-03-28T17:23:45.465Z,6.51
2023-03-28T17:26:12.190Z,6.68
2023-03-28T17:28:41.916Z,6.68
2023-03-28T17:31:10.093Z,6.56
2023-03-28T17:33:36.779Z,6.56
2023-03-28T17:36:19.688Z,6.37
2023-03-28T17:38:47.905Z,6.61
2023-03-28T17:41:14.360Z,6.54
2023-03-28T17:43:41.420Z,6.46
2023-03-28T17:46:08.586Z,6.56
2023-03-28T17:48:36.243Z,6.35
2023-03-28T17:51:02.701Z,6.34
2023-03-28T17:53:29.540Z,6.52
2023-03-28T17:55:57.328Z,6.47
2023-03-28T17:58:24.699Z,6.29
2023-03-28T18:00:51.204Z,6.49
2023-03-28T18:03:17.785Z,6.36
2023-03-28T18:06:04.829Z,6.30
2023-03-28T18:08:31.480Z,6.30
2023-03-28T18:11:02.368Z,6.26
2023-03-28T18:13:28.951Z,6.37
2023-03-28T18:15:55.467Z,6.22
2023-03-28T18:18:21.935Z,6.52
2023-03-28T18:20:50.842Z,6.25
2023-03-28T18:23:17.449Z,6.24
2023-03-28T18:25:43.955Z,6.20
2023-03-28T18:28:10.906Z,6.22
2023-03-28T18:30:37.751Z,6.15
2023-03-28T18:33:04.408Z,6.16
2023-03-28T18:35:31.323Z,6.35
2023-03-28T18:37:57.765Z,6.28
2023-03-28T18:40:24.513Z,6.46
2023-03-28T18:42:51.193Z,6.21
2023-03-28T18:45:17.845Z,6.30
2023-03-28T18:47:44.466Z,6.21
2023-03-28T18:50:11.031Z,6.10
2023-03-28T18:52:37.538Z,5.98
2023-03-28T18:55:07.437Z,6.02
2023-03-28T18:57:34.937Z,5.77
2023-03-28T19:00:02.008Z,5.48
2023-03-28T19:02:28.954Z,5.29
2023-03-28T19:04:55.523Z,5.08
2023-03-28T19:07:21.996Z,5.01
2023-03-28T19:09:48.831Z,5.14
2023-03-28T19:12:15.370Z,5.11
2023-03-28T19:14:41.904Z,4.86
2023-03-28T19:17:08.400Z,4.85
2023-03-28T19:19:37.425Z,4.46
2023-03-28T19:22:05.765Z,4.66
2023-03-28T19:24:33.545Z,4.62
2023-03-28T19:27:01.007Z,4.66
2023-03-28T19:29:30.043Z,5.29
2023-03-28T19:31:56.780Z,5.13
2023-03-28T19:34:23.256Z,5.16
2023-03-28T19:36:49.769Z,5.06
2023-03-28T19:39:16.341Z,5.18
2023-03-28T19:41:42.819Z,4.94
2023-03-28T19:44:09.408Z,4.84
2023-03-28T19:46:38.047Z,4.57
2023-03-28T19:49:06.369Z,4.38
2023-03-28T19:51:32.892Z,4.50
2023-03-28T19:53:59.376Z,4.26
2023-03-28T19:56:27.016Z,4.11
2023-03-28T19:58:53.515Z,4.04
2023-03-28T20:01:20.124Z,4.27
2023-03-28T20:03:49.510Z,4.26
2023-03-28T20:06:17.015Z,4.18
2023-03-28T20:08:43.564Z,4.08
2023-03-28T20:11:11.945Z,3.72
2023-03-28T20:13:38.650Z,4.00
2023-03-28T20:16:06.422Z,4.44
2023-03-28T20:18:33.068Z,4.28
2023-03-28T20:21:01.079Z,4.36
2023-03-28T20:23:28.912Z,4.37
2023-03-28T20:25:55.844Z,4.15
2023-03-28T20:28:26.238Z,3.87
2023-03-28T20:30:53.770Z,3.84
2023-03-28T20:33:20.731Z,3.85
2023-03-28T20:35:51.608Z,3.92
2023-03-28T20:38:18.188Z,3.74
2023-03-28T20:40:44.654Z,3.84
2023-03-28T20:43:11.799Z,3.99
2023-03-28T20:45:38.835Z,4.20
2023-03-28T20:48:07.128Z,4.42
2023-03-28T20:50:34.168Z,4.63
2023-03-28T20:53:01.985Z,4.68
2023-03-28T20:55:32.068Z,5.14
2023-03-28T20:57:58.652Z,5.26
2023-03-28T21:00:25.426Z,5.01
2023-03-28T21:02:53.666Z,5.22
2023-03-28T21:05:22.038Z,5.28
2023-03-28T21:07:48.965Z,5.17
2023-03-28T21:10:16.434Z,5.18
2023-03-28T21:12:47.365Z,5.06
2023-03-28T21:15:14.414Z,5.21
2023-03-28T21:17:41.468Z,5.48
2023-03-28T21:20:10.166Z,5.40
2023-03-28T21:22:38.032Z,5.79
2023-03-28T21:25:08.614Z,5.55
2023-03-28T21:27:36.796Z,5.31
2023-03-28T21:30:07.584Z,5.26
2023-03-28T21:32:34.816Z,5.16
2023-03-28T21:35:02.360Z,5.43
2023-03-28T21:37:28.972Z,5.45
2023-03-28T21:39:55.486Z,5.38
2023-03-28T21:42:22.252Z,5.39
2023-03-28T21:44:48.887Z,5.52
2023-03-28T21:47:15.410Z,5.20
2023-03-28T21:49:43.299Z,5.07
2023-03-28T21:52:09.719Z,5.05
2023-03-28T21:54:36.205Z,5.05
2023-03-28T21:57:02.794Z,4.88
2023-03-28T21:59:29.310Z,4.88
2023-03-28T22:01:55.829Z,4.78
2023-03-28T22:04:22.450Z,4.88
2023-03-28T22:06:48.867Z,4.78
2023-03-28T22:09:15.345Z,4.65
2023-03-28T22:11:42.126Z,4.67
2023-03-28T22:14:09.607Z,4.71
2023-03-28T22:16:37.515Z,4.76
2023-03-28T22:19:04.612Z,4.61
2023-03-28T22:21:31.437Z,4.57
2023-03-28T22:24:04.331Z,4.30
2023-03-28T22:26:30.995Z,4.08
2023-03-28T22:28:58.453Z,4.02
2023-03-28T22:31:25.977Z,4.10
2023-03-28T22:33:57.634Z,4.06
2023-03-28T22:36:24.432Z,4.13
2023-03-28T22:38:51.875Z,4.12
2023-03-28T22:41:18.370Z,3.88
2023-03-28T22:43:45.054Z,3.88
2023-03-28T22:46:16.353Z,3.57
2023-03-28T22:48:43.765Z,3.32
2023-03-28T22:51:15.668Z,3.29
2023-03-28T22:53:42.429Z,3.31
2023-03-28T22:56:09.012Z,3.14
2023-03-28T22:58:35.947Z,3.28
2023-03-28T23:01:03.837Z,3.41
2023-03-28T23:03:31.075Z,3.37
2023-03-28T23:06:01.295Z,3.31
2023-03-28T23:08:28.200Z,3.12
2023-03-28T23:10:54.647Z,2.91
2023-03-28T23:13:21.247Z,2.93
2023-03-28T23:15:47.893Z,3.34
2023-03-28T23:18:14.731Z,3.26
2023-03-28T23:20:41.253Z,3.26
2023-03-28T23:23:08.837Z,3.41
2023-03-28T23:25:35.537Z,3.28
2023-03-28T23:28:01.996Z,3.23
2023-03-28T23:30:28.507Z,3.17
2023-03-28T23:32:54.986Z,3.23
2023-03-28T23:35:21.548Z,3.37
2023-03-28T23:37:48.015Z,3.16
2023-03-28T23:40:15.321Z,3.02
2023-03-28T23:42:43.708Z,2.84
2023-03-28T23:45:11.416Z,2.57
2023-03-28T23:47:37.997Z,2.58
2023-03-28T23:50:05.240Z,2.62
2023-03-28T23:52:31.750Z,2.42
2023-03-28T23:54:58.283Z,2.13
2023-03-28T23:57:25.278Z,2.09
2023-03-28T23:59:51.893Z,2.40
